sensor_id;sensor_type;location;lat;lon;timestamp;P1;durP1;ratioP1;P2;durP2;ratioP2
62584;SDS011;48643;51.670;5.808;2022-09-06T00:01:19;7.47;;;3.58;;
62584;SDS011;48643;51.670;5.808;2022-09-06T00:03:48;6.57;;;3.63;;
62584;SDS011;48643;51.670;5.808;2022-09-06T00:06:16;9.68;;;3.60;;
62584;SDS011;48643;51.670;5.808;2022-09-06T00:08:44;7.23;;;3.10;;
62584;SDS011;48643;51.670;5.808;2022-09-06T00:11:12;6.00;;;3.75;;
62584;SDS011;48643;51.670;5.808;2022-09-06T00:13:39;6.22;;;3.42;;
62584;SDS011;48643;51.670;5.808;2022-09-06T00:16:13;8.07;;;3.50;;
62584;SDS011;48643;51.670;5.808;2022-09-06T00:18:42;6.13;;;3.08;;
62584;SDS011;48643;51.670;5.808;2022-09-06T00:21:13;6.00;;;3.05;;
62584;SDS011;48643;51.670;5.808;2022-09-06T00:23:41;7.05;;;3.10;;
62584;SDS011;48643;51.670;5.808;2022-09-06T00:26:07;5.47;;;3.22;;
62584;SDS011;48643;51.670;5.808;2022-09-06T00:28:34;5.90;;;3.05;;
62584;SDS011;48643;51.670;5.808;2022-09-06T00:31:08;7.18;;;3.70;;
62584;SDS011;48643;51.670;5.808;2022-09-06T00:33:44;4.07;;;3.30;;
62584;SDS011;48643;51.670;5.808;2022-09-06T00:36:12;5.40;;;3.22;;
62584;SDS011;48643;51.670;5.808;2022-09-06T00:38:39;6.35;;;3.17;;
62584;SDS011;48643;51.670;5.808;2022-09-06T00:41:07;3.90;;;3.03;;
62584;SDS011;48643;51.670;5.808;2022-09-06T00:43:35;6.90;;;3.10;;
62584;SDS011;48643;51.670;5.808;2022-09-06T00:46:02;4.57;;;3.05;;
62584;SDS011;48643;51.670;5.808;2022-09-06T00:48:30;4.53;;;2.92;;
62584;SDS011;48643;51.670;5.808;2022-09-06T00:51:01;5.72;;;3.25;;
62584;SDS011;48643;51.670;5.808;2022-09-06T00:53:29;6.45;;;3.10;;
62584;SDS011;48643;51.670;5.808;2022-09-06T00:55:56;6.40;;;3.10;;
62584;SDS011;48643;51.670;5.808;2022-09-06T00:58:23;7.35;;;3.97;;
62584;SDS011;48643;51.670;5.808;2022-09-06T01:11:46;12.70;;;5.10;;
62584;SDS011;48643;51.670;5.808;2022-09-06T01:36:23;10.40;;;5.72;;
62584;SDS011;48643;51.670;5.808;2022-09-06T01:38:52;9.48;;;5.68;;
62584;SDS011;48643;51.670;5.808;2022-09-06T01:41:19;14.63;;;6.40;;
62584;SDS011;48643;51.670;5.808;2022-09-06T01:43:47;11.10;;;6.57;;
62584;SDS011;48643;51.670;5.808;2022-09-06T01:46:26;10.18;;;6.72;;
62584;SDS011;48643;51.670;5.808;2022-09-06T01:54:31;12.65;;;7.00;;
62584;SDS011;48643;51.670;5.808;2022-09-06T01:57:20;8.82;;;6.50;;
62584;SDS011;48643;51.670;5.808;2022-09-06T02:00:13;12.82;;;7.32;;
62584;SDS011;48643;51.670;5.808;2022-09-06T02:05:10;11.43;;;8.18;;
62584;SDS011;48643;51.670;5.808;2022-09-06T02:07:45;14.02;;;7.50;;
62584;SDS011;48643;51.670;5.808;2022-09-06T02:13:11;12.23;;;7.43;;
62584;SDS011;48643;51.670;5.808;2022-09-06T02:24:04;11.75;;;8.10;;
62584;SDS011;48643;51.670;5.808;2022-09-06T02:26:34;11.18;;;7.63;;
62584;SDS011;48643;51.670;5.808;2022-09-06T02:29:02;12.35;;;7.72;;
62584;SDS011;48643;51.670;5.808;2022-09-06T02:31:33;11.23;;;6.97;;
62584;SDS011;48643;51.670;5.808;2022-09-06T02:34:07;14.55;;;7.38;;
62584;SDS011;48643;51.670;5.808;2022-09-06T02:36:36;10.60;;;6.82;;
62584;SDS011;48643;51.670;5.808;2022-09-06T02:39:03;11.50;;;6.55;;
62584;SDS011;48643;51.670;5.808;2022-09-06T02:41:30;15.85;;;7.45;;
62584;SDS011;48643;51.670;5.808;2022-09-06T02:43:58;13.30;;;8.13;;
62584;SDS011;48643;51.670;5.808;2022-09-06T02:46:25;13.60;;;8.68;;
62584;SDS011;48643;51.670;5.808;2022-09-06T02:48:52;12.57;;;8.70;;
62584;SDS011;48643;51.670;5.808;2022-09-06T02:51:19;12.05;;;7.68;;
62584;SDS011;48643;51.670;5.808;2022-09-06T02:53:46;12.07;;;7.75;;
62584;SDS011;48643;51.670;5.808;2022-09-06T02:56:13;13.75;;;8.48;;
62584;SDS011;48643;51.670;5.808;2022-09-06T02:58:40;14.15;;;8.55;;
62584;SDS011;48643;51.670;5.808;2022-09-06T03:01:07;11.02;;;8.23;;
62584;SDS011;48643;51.670;5.808;2022-09-06T03:03:34;12.93;;;8.00;;
62584;SDS011;48643;51.670;5.808;2022-09-06T03:06:01;12.88;;;8.18;;
62584;SDS011;48643;51.670;5.808;2022-09-06T03:08:28;16.83;;;7.90;;
62584;SDS011;48643;51.670;5.808;2022-09-06T03:10:58;11.50;;;7.05;;
62584;SDS011;48643;51.670;5.808;2022-09-06T03:13:26;10.05;;;7.38;;
62584;SDS011;48643;51.670;5.808;2022-09-06T03:15:53;11.50;;;7.82;;
62584;SDS011;48643;51.670;5.808;2022-09-06T03:18:22;12.88;;;7.68;;
62584;SDS011;48643;51.670;5.808;2022-09-06T03:20:50;15.52;;;7.60;;
62584;SDS011;48643;51.670;5.808;2022-09-06T03:23:17;14.48;;;7.45;;
62584;SDS011;48643;51.670;5.808;2022-09-06T03:25:46;12.68;;;7.53;;
62584;SDS011;48643;51.670;5.808;2022-09-06T03:28:13;15.50;;;7.47;;
62584;SDS011;48643;51.670;5.808;2022-09-06T03:30:42;11.93;;;7.43;;
62584;SDS011;48643;51.670;5.808;2022-09-06T03:33:10;13.77;;;7.57;;
62584;SDS011;48643;51.670;5.808;2022-09-06T03:35:37;9.88;;;7.10;;
62584;SDS011;48643;51.670;5.808;2022-09-06T03:38:04;11.70;;;7.65;;
62584;SDS011;48643;51.670;5.808;2022-09-06T03:40:31;10.38;;;7.80;;
62584;SDS011;48643;51.670;5.808;2022-09-06T03:42:57;11.90;;;8.07;;
62584;SDS011;48643;51.670;5.808;2022-09-06T03:45:24;9.18;;;7.03;;
62584;SDS011;48643;51.670;5.808;2022-09-06T03:47:51;11.02;;;8.05;;
62584;SDS011;48643;51.670;5.808;2022-09-06T03:50:20;11.85;;;8.05;;
62584;SDS011;48643;51.670;5.808;2022-09-06T03:52:47;17.15;;;8.52;;
62584;SDS011;48643;51.670;5.808;2022-09-06T03:55:15;15.60;;;7.75;;
62584;SDS011;48643;51.670;5.808;2022-09-06T03:57:42;16.83;;;8.38;;
62584;SDS011;48643;51.670;5.808;2022-09-06T04:00:10;14.40;;;9.13;;
62584;SDS011;48643;51.670;5.808;2022-09-06T04:02:38;13.85;;;9.18;;
62584;SDS011;48643;51.670;5.808;2022-09-06T04:05:05;12.05;;;8.63;;
62584;SDS011;48643;51.670;5.808;2022-09-06T04:07:33;12.13;;;8.30;;
62584;SDS011;48643;51.670;5.808;2022-09-06T04:09:59;12.13;;;8.20;;
62584;SDS011;48643;51.670;5.808;2022-09-06T04:12:26;14.05;;;8.43;;
62584;SDS011;48643;51.670;5.808;2022-09-06T04:14:54;12.88;;;7.78;;
62584;SDS011;48643;51.670;5.808;2022-09-06T04:20:17;10.13;;;7.72;;
62584;SDS011;48643;51.670;5.808;2022-09-06T04:25:36;10.70;;;7.57;;
62584;SDS011;48643;51.670;5.808;2022-09-06T04:28:07;13.63;;;8.32;;
62584;SDS011;48643;51.670;5.808;2022-09-06T04:30:34;11.75;;;8.43;;
62584;SDS011;48643;51.670;5.808;2022-09-06T04:35:58;12.68;;;8.73;;
62584;SDS011;48643;51.670;5.808;2022-09-06T04:38:26;13.57;;;8.20;;
62584;SDS011;48643;51.670;5.808;2022-09-06T04:40:55;15.25;;;8.75;;
62584;SDS011;48643;51.670;5.808;2022-09-06T04:43:26;15.55;;;8.77;;
62584;SDS011;48643;51.670;5.808;2022-09-06T04:45:53;11.85;;;7.55;;
62584;SDS011;48643;51.670;5.808;2022-09-06T04:48:20;15.27;;;8.15;;
62584;SDS011;48643;51.670;5.808;2022-09-06T04:50:46;15.05;;;8.63;;
62584;SDS011;48643;51.670;5.808;2022-09-06T04:53:16;11.52;;;8.73;;
62584;SDS011;48643;51.670;5.808;2022-09-06T04:55:43;18.60;;;8.40;;
62584;SDS011;48643;51.670;5.808;2022-09-06T04:58:10;15.52;;;8.40;;
62584;SDS011;48643;51.670;5.808;2022-09-06T05:00:37;17.23;;;9.27;;
62584;SDS011;48643;51.670;5.808;2022-09-06T05:03:04;15.90;;;8.57;;
62584;SDS011;48643;51.670;5.808;2022-09-06T05:05:31;12.60;;;7.72;;
62584;SDS011;48643;51.670;5.808;2022-09-06T05:07:58;14.55;;;9.00;;
62584;SDS011;48643;51.670;5.808;2022-09-06T05:10:25;16.83;;;9.00;;
62584;SDS011;48643;51.670;5.808;2022-09-06T05:12:52;13.98;;;8.70;;
62584;SDS011;48643;51.670;5.808;2022-09-06T05:15:20;17.17;;;8.68;;
62584;SDS011;48643;51.670;5.808;2022-09-06T05:17:47;15.45;;;9.45;;
62584;SDS011;48643;51.670;5.808;2022-09-06T05:20:15;14.40;;;9.63;;
62584;SDS011;48643;51.670;5.808;2022-09-06T05:22:42;14.48;;;9.38;;
62584;SDS011;48643;51.670;5.808;2022-09-06T05:25:08;14.70;;;9.20;;
62584;SDS011;48643;51.670;5.808;2022-09-06T05:27:35;19.60;;;10.07;;
62584;SDS011;48643;51.670;5.808;2022-09-06T05:30:02;17.27;;;10.40;;
62584;SDS011;48643;51.670;5.808;2022-09-06T05:32:30;18.42;;;10.52;;
62584;SDS011;48643;51.670;5.808;2022-09-06T05:34:56;17.55;;;11.13;;
62584;SDS011;48643;51.670;5.808;2022-09-06T05:37:23;21.65;;;11.05;;
62584;SDS011;48643;51.670;5.808;2022-09-06T05:39:50;26.10;;;11.20;;
62584;SDS011;48643;51.670;5.808;2022-09-06T05:42:17;18.08;;;11.55;;
62584;SDS011;48643;51.670;5.808;2022-09-06T05:44:44;19.73;;;12.05;;
62584;SDS011;48643;51.670;5.808;2022-09-06T05:47:11;26.40;;;11.75;;
62584;SDS011;48643;51.670;5.808;2022-09-06T05:49:38;19.02;;;12.23;;
62584;SDS011;48643;51.670;5.808;2022-09-06T05:52:05;32.65;;;12.40;;
62584;SDS011;48643;51.670;5.808;2022-09-06T05:54:32;20.65;;;11.48;;
62584;SDS011;48643;51.670;5.808;2022-09-06T05:56:59;20.83;;;12.00;;
62584;SDS011;48643;51.670;5.808;2022-09-06T05:59:25;23.38;;;12.20;;
62584;SDS011;48643;51.670;5.808;2022-09-06T06:01:52;28.13;;;13.23;;
62584;SDS011;48643;51.670;5.808;2022-09-06T06:04:20;23.92;;;13.10;;
62584;SDS011;48643;51.670;5.808;2022-09-06T06:06:47;26.00;;;13.68;;
62584;SDS011;48643;51.670;5.808;2022-09-06T06:09:14;27.80;;;13.35;;
62584;SDS011;48643;51.670;5.808;2022-09-06T06:11:41;30.98;;;14.32;;
62584;SDS011;48643;51.670;5.808;2022-09-06T06:14:08;24.60;;;12.60;;
62584;SDS011;48643;51.670;5.808;2022-09-06T06:16:35;30.58;;;13.48;;
62584;SDS011;48643;51.670;5.808;2022-09-06T06:19:02;24.67;;;13.10;;
62584;SDS011;48643;51.670;5.808;2022-09-06T06:21:30;32.30;;;13.50;;
62584;SDS011;48643;51.670;5.808;2022-09-06T06:23:59;23.77;;;12.88;;
62584;SDS011;48643;51.670;5.808;2022-09-06T06:26:29;21.77;;;12.60;;
62584;SDS011;48643;51.670;5.808;2022-09-06T06:28:59;23.98;;;12.95;;
62584;SDS011;48643;51.670;5.808;2022-09-06T06:31:31;29.90;;;13.63;;
62584;SDS011;48643;51.670;5.808;2022-09-06T06:33:58;26.33;;;13.07;;
62584;SDS011;48643;51.670;5.808;2022-09-06T06:36:28;41.75;;;14.93;;
62584;SDS011;48643;51.670;5.808;2022-09-06T06:38:57;19.10;;;12.90;;
62584;SDS011;48643;51.670;5.808;2022-09-06T06:41:24;27.08;;;13.50;;
62584;SDS011;48643;51.670;5.808;2022-09-06T06:43:53;21.35;;;13.40;;
62584;SDS011;48643;51.670;5.808;2022-09-06T06:48:49;32.72;;;13.07;;
62584;SDS011;48643;51.670;5.808;2022-09-06T06:51:21;34.25;;;12.50;;
62584;SDS011;48643;51.670;5.808;2022-09-06T06:53:50;29.67;;;12.73;;
62584;SDS011;48643;51.670;5.808;2022-09-06T06:56:26;23.73;;;11.50;;
62584;SDS011;48643;51.670;5.808;2022-09-06T06:58:54;26.35;;;10.75;;
62584;SDS011;48643;51.670;5.808;2022-09-06T07:01:23;22.65;;;10.60;;
62584;SDS011;48643;51.670;5.808;2022-09-06T07:03:51;15.23;;;10.68;;
62584;SDS011;48643;51.670;5.808;2022-09-06T07:06:19;14.00;;;10.00;;
62584;SDS011;48643;51.670;5.808;2022-09-06T07:08:47;15.20;;;9.50;;
62584;SDS011;48643;51.670;5.808;2022-09-06T07:11:15;15.82;;;9.13;;
62584;SDS011;48643;51.670;5.808;2022-09-06T07:13:48;15.07;;;9.05;;
62584;SDS011;48643;51.670;5.808;2022-09-06T07:16:19;14.27;;;9.13;;
62584;SDS011;48643;51.670;5.808;2022-09-06T07:18:49;15.57;;;8.45;;
62584;SDS011;48643;51.670;5.808;2022-09-06T07:21:18;20.60;;;8.82;;
62584;SDS011;48643;51.670;5.808;2022-09-06T07:24:03;12.05;;;8.50;;
62584;SDS011;48643;51.670;5.808;2022-09-06T07:26:34;11.77;;;8.10;;
62584;SDS011;48643;51.670;5.808;2022-09-06T07:29:02;16.70;;;8.55;;
62584;SDS011;48643;51.670;5.808;2022-09-06T07:31:30;18.97;;;8.73;;
62584;SDS011;48643;51.670;5.808;2022-09-06T07:34:17;14.25;;;7.97;;
62584;SDS011;48643;51.670;5.808;2022-09-06T07:36:44;12.95;;;7.95;;
62584;SDS011;48643;51.670;5.808;2022-09-06T07:39:11;17.58;;;7.82;;
62584;SDS011;48643;51.670;5.808;2022-09-06T07:41:38;18.08;;;7.95;;
62584;SDS011;48643;51.670;5.808;2022-09-06T07:44:04;14.88;;;7.50;;
62584;SDS011;48643;51.670;5.808;2022-09-06T07:46:31;12.73;;;7.85;;
62584;SDS011;48643;51.670;5.808;2022-09-06T07:48:58;21.40;;;7.63;;
62584;SDS011;48643;51.670;5.808;2022-09-06T07:51:25;13.95;;;7.10;;
62584;SDS011;48643;51.670;5.808;2022-09-06T07:53:53;13.52;;;6.95;;
62584;SDS011;48643;51.670;5.808;2022-09-06T07:56:44;15.25;;;6.82;;
62584;SDS011;48643;51.670;5.808;2022-09-06T07:59:11;13.57;;;7.10;;
62584;SDS011;48643;51.670;5.808;2022-09-06T08:01:38;17.38;;;7.40;;
62584;SDS011;48643;51.670;5.808;2022-09-06T08:04:06;18.23;;;7.00;;
62584;SDS011;48643;51.670;5.808;2022-09-06T08:06:34;11.65;;;7.13;;
62584;SDS011;48643;51.670;5.808;2022-09-06T08:09:22;11.52;;;7.15;;
62584;SDS011;48643;51.670;5.808;2022-09-06T08:11:53;12.25;;;6.72;;
62584;SDS011;48643;51.670;5.808;2022-09-06T08:14:20;11.43;;;6.68;;
62584;SDS011;48643;51.670;5.808;2022-09-06T08:16:47;9.13;;;6.60;;
62584;SDS011;48643;51.670;5.808;2022-09-06T08:19:13;12.63;;;6.10;;
62584;SDS011;48643;51.670;5.808;2022-09-06T08:21:40;8.65;;;6.07;;
62584;SDS011;48643;51.670;5.808;2022-09-06T08:24:07;10.40;;;5.93;;
62584;SDS011;48643;51.670;5.808;2022-09-06T08:26:35;13.77;;;6.07;;
62584;SDS011;48643;51.670;5.808;2022-09-06T08:29:08;9.00;;;5.88;;
62584;SDS011;48643;51.670;5.808;2022-09-06T08:31:37;10.82;;;5.75;;
62584;SDS011;48643;51.670;5.808;2022-09-06T08:34:08;10.75;;;5.60;;
62584;SDS011;48643;51.670;5.808;2022-09-06T08:36:37;13.45;;;5.70;;
62584;SDS011;48643;51.670;5.808;2022-09-06T08:39:05;11.45;;;4.90;;
62584;SDS011;48643;51.670;5.808;2022-09-06T08:47:23;10.25;;;3.90;;
62584;SDS011;48643;51.670;5.808;2022-09-06T08:49:51;10.52;;;3.83;;
62584;SDS011;48643;51.670;5.808;2022-09-06T08:55:32;7.65;;;3.90;;
62584;SDS011;48643;51.670;5.808;2022-09-06T09:01:16;9.57;;;3.60;;
62584;SDS011;48643;51.670;5.808;2022-09-06T09:03:44;8.05;;;3.30;;
62584;SDS011;48643;51.670;5.808;2022-09-06T09:06:12;8.88;;;3.63;;
62584;SDS011;48643;51.670;5.808;2022-09-06T09:08:44;8.95;;;3.42;;
62584;SDS011;48643;51.670;5.808;2022-09-06T09:11:16;8.20;;;3.58;;
62584;SDS011;48643;51.670;5.808;2022-09-06T09:13:54;5.85;;;3.55;;
62584;SDS011;48643;51.670;5.808;2022-09-06T09:16:27;4.55;;;2.75;;
62584;SDS011;48643;51.670;5.808;2022-09-06T09:18:55;8.05;;;3.05;;
62584;SDS011;48643;51.670;5.808;2022-09-06T09:21:24;6.40;;;2.80;;
62584;SDS011;48643;51.670;5.808;2022-09-06T09:23:57;5.60;;;2.88;;
62584;SDS011;48643;51.670;5.808;2022-09-06T09:26:27;6.18;;;2.80;;
62584;SDS011;48643;51.670;5.808;2022-09-06T09:31:41;6.25;;;2.60;;
62584;SDS011;48643;51.670;5.808;2022-09-06T09:40:52;5.32;;;2.63;;
62584;SDS011;48643;51.670;5.808;2022-09-06T09:43:24;10.35;;;2.80;;
62584;SDS011;48643;51.670;5.808;2022-09-06T09:49:06;8.90;;;2.50;;
62584;SDS011;48643;51.670;5.808;2022-09-06T09:51:39;4.30;;;2.90;;
62584;SDS011;48643;51.670;5.808;2022-09-06T09:54:07;6.93;;;2.42;;
62584;SDS011;48643;51.670;5.808;2022-09-06T10:01:43;6.30;;;2.67;;
62584;SDS011;48643;51.670;5.808;2022-09-06T10:04:11;3.78;;;2.60;;
62584;SDS011;48643;51.670;5.808;2022-09-06T10:09:38;11.60;;;3.10;;
62584;SDS011;48643;51.670;5.808;2022-09-06T10:12:07;5.15;;;2.85;;
62584;SDS011;48643;51.670;5.808;2022-09-06T10:17:31;7.15;;;3.33;;
62584;SDS011;48643;51.670;5.808;2022-09-06T10:22:37;10.25;;;3.95;;
62584;SDS011;48643;51.670;5.808;2022-09-06T10:33:24;9.13;;;3.72;;
62584;SDS011;48643;51.670;5.808;2022-09-06T10:35:55;6.07;;;4.07;;
62584;SDS011;48643;51.670;5.808;2022-09-06T10:41:12;10.20;;;3.50;;
62584;SDS011;48643;51.670;5.808;2022-09-06T10:47:05;7.40;;;3.10;;
62584;SDS011;48643;51.670;5.808;2022-09-06T10:49:36;10.10;;;3.45;;
62584;SDS011;48643;51.670;5.808;2022-09-06T10:52:06;8.60;;;3.38;;
62584;SDS011;48643;51.670;5.808;2022-09-06T10:54:35;8.15;;;3.40;;
62584;SDS011;48643;51.670;5.808;2022-09-06T10:57:10;8.57;;;3.15;;
62584;SDS011;48643;51.670;5.808;2022-09-06T11:00:05;4.90;;;2.65;;
62584;SDS011;48643;51.670;5.808;2022-09-06T11:05:32;6.65;;;3.72;;
62584;SDS011;48643;51.670;5.808;2022-09-06T11:08:14;8.57;;;3.00;;
62584;SDS011;48643;51.670;5.808;2022-09-06T11:11:05;4.67;;;2.90;;
62584;SDS011;48643;51.670;5.808;2022-09-06T11:13:36;9.07;;;3.33;;
62584;SDS011;48643;51.670;5.808;2022-09-06T11:16:06;13.07;;;3.13;;
62584;SDS011;48643;51.670;5.808;2022-09-06T11:18:45;9.68;;;2.80;;
62584;SDS011;48643;51.670;5.808;2022-09-06T11:21:36;6.30;;;2.92;;
62584;SDS011;48643;51.670;5.808;2022-09-06T11:24:28;9.73;;;2.90;;
62584;SDS011;48643;51.670;5.808;2022-09-06T11:30:12;7.30;;;3.00;;
62584;SDS011;48643;51.670;5.808;2022-09-06T11:32:44;8.68;;;2.83;;
62584;SDS011;48643;51.670;5.808;2022-09-06T11:40:42;9.43;;;3.10;;
62584;SDS011;48643;51.670;5.808;2022-09-06T11:43:15;10.10;;;2.95;;
62584;SDS011;48643;51.670;5.808;2022-09-06T11:45:44;10.93;;;2.90;;
62584;SDS011;48643;51.670;5.808;2022-09-06T11:53:21;8.52;;;3.13;;
62584;SDS011;48643;51.670;5.808;2022-09-06T11:55:50;10.73;;;3.08;;
62584;SDS011;48643;51.670;5.808;2022-09-06T11:58:32;6.05;;;3.30;;
62584;SDS011;48643;51.670;5.808;2022-09-06T12:01:50;6.07;;;3.35;;
62584;SDS011;48643;51.670;5.808;2022-09-06T12:06:40;7.53;;;3.50;;
62584;SDS011;48643;51.670;5.808;2022-09-06T12:09:28;9.85;;;3.58;;
62584;SDS011;48643;51.670;5.808;2022-09-06T12:11:59;12.65;;;3.83;;
62584;SDS011;48643;51.670;5.808;2022-09-06T12:27:59;7.65;;;3.15;;
62584;SDS011;48643;51.670;5.808;2022-09-06T12:33:19;6.47;;;3.38;;
62584;SDS011;48643;51.670;5.808;2022-09-06T12:38:59;12.15;;;3.30;;
62584;SDS011;48643;51.670;5.808;2022-09-06T12:41:36;8.27;;;3.28;;
62584;SDS011;48643;51.670;5.808;2022-09-06T12:44:09;8.02;;;3.20;;
62584;SDS011;48643;51.670;5.808;2022-09-06T12:46:36;6.25;;;3.20;;
62584;SDS011;48643;51.670;5.808;2022-09-06T12:49:10;11.05;;;3.10;;
62584;SDS011;48643;51.670;5.808;2022-09-06T12:51:39;11.82;;;3.33;;
62584;SDS011;48643;51.670;5.808;2022-09-06T12:54:19;8.90;;;3.10;;
62584;SDS011;48643;51.670;5.808;2022-09-06T12:56:48;11.15;;;3.00;;
62584;SDS011;48643;51.670;5.808;2022-09-06T12:59:22;8.48;;;2.97;;
62584;SDS011;48643;51.670;5.808;2022-09-06T13:01:59;11.23;;;3.50;;
62584;SDS011;48643;51.670;5.808;2022-09-06T13:04:47;8.80;;;3.22;;
62584;SDS011;48643;51.670;5.808;2022-09-06T13:09:44;6.85;;;2.88;;
62584;SDS011;48643;51.670;5.808;2022-09-06T13:14:54;13.82;;;3.40;;
62584;SDS011;48643;51.670;5.808;2022-09-06T13:17:23;7.03;;;2.60;;
62584;SDS011;48643;51.670;5.808;2022-09-06T13:19:51;6.22;;;2.50;;
62584;SDS011;48643;51.670;5.808;2022-09-06T13:25:04;10.85;;;2.47;;
62584;SDS011;48643;51.670;5.808;2022-09-06T13:27:35;4.75;;;2.40;;
62584;SDS011;48643;51.670;5.808;2022-09-06T13:30:05;5.88;;;2.60;;
62584;SDS011;48643;51.670;5.808;2022-09-06T13:32:35;10.13;;;2.83;;
62584;SDS011;48643;51.670;5.808;2022-09-06T13:35:02;8.07;;;2.88;;
62584;SDS011;48643;51.670;5.808;2022-09-06T13:37:32;6.60;;;2.50;;
62584;SDS011;48643;51.670;5.808;2022-09-06T13:40:01;8.57;;;2.40;;
62584;SDS011;48643;51.670;5.808;2022-09-06T13:43:27;10.52;;;2.40;;
62584;SDS011;48643;51.670;5.808;2022-09-06T13:46:03;5.65;;;3.10;;
62584;SDS011;48643;51.670;5.808;2022-09-06T13:48:31;7.20;;;2.85;;
62584;SDS011;48643;51.670;5.808;2022-09-06T13:50:58;6.18;;;2.70;;
62584;SDS011;48643;51.670;5.808;2022-09-06T13:53:25;8.43;;;3.15;;
62584;SDS011;48643;51.670;5.808;2022-09-06T13:55:52;4.80;;;2.90;;
62584;SDS011;48643;51.670;5.808;2022-09-06T13:58:19;5.93;;;2.95;;
62584;SDS011;48643;51.670;5.808;2022-09-06T14:00:46;4.32;;;2.78;;
62584;SDS011;48643;51.670;5.808;2022-09-06T14:03:20;7.53;;;3.10;;
62584;SDS011;48643;51.670;5.808;2022-09-06T14:05:50;7.20;;;3.00;;
62584;SDS011;48643;51.670;5.808;2022-09-06T14:08:17;6.93;;;2.72;;
62584;SDS011;48643;51.670;5.808;2022-09-06T14:10:44;6.80;;;2.83;;
62584;SDS011;48643;51.670;5.808;2022-09-06T14:13:14;10.68;;;2.85;;
62584;SDS011;48643;51.670;5.808;2022-09-06T14:15:41;7.47;;;3.00;;
62584;SDS011;48643;51.670;5.808;2022-09-06T14:18:08;12.65;;;3.38;;
62584;SDS011;48643;51.670;5.808;2022-09-06T14:20:40;5.35;;;3.00;;
62584;SDS011;48643;51.670;5.808;2022-09-06T14:23:07;5.32;;;2.70;;
62584;SDS011;48643;51.670;5.808;2022-09-06T14:25:35;12.48;;;3.10;;
62584;SDS011;48643;51.670;5.808;2022-09-06T14:28:02;7.15;;;2.63;;
62584;SDS011;48643;51.670;5.808;2022-09-06T14:30:30;7.25;;;2.70;;
62584;SDS011;48643;51.670;5.808;2022-09-06T14:32:57;8.10;;;2.83;;
62584;SDS011;48643;51.670;5.808;2022-09-06T14:35:24;8.07;;;2.80;;
62584;SDS011;48643;51.670;5.808;2022-09-06T14:37:51;7.22;;;2.80;;
62584;SDS011;48643;51.670;5.808;2022-09-06T14:40:17;8.90;;;2.70;;
62584;SDS011;48643;51.670;5.808;2022-09-06T14:42:44;8.82;;;3.10;;
62584;SDS011;48643;51.670;5.808;2022-09-06T14:45:15;7.95;;;2.90;;
62584;SDS011;48643;51.670;5.808;2022-09-06T14:47:42;7.75;;;2.70;;
62584;SDS011;48643;51.670;5.808;2022-09-06T14:50:09;8.43;;;2.70;;
62584;SDS011;48643;51.670;5.808;2022-09-06T14:52:36;6.28;;;2.50;;
62584;SDS011;48643;51.670;5.808;2022-09-06T14:55:04;8.68;;;2.80;;
62584;SDS011;48643;51.670;5.808;2022-09-06T14:57:31;9.27;;;2.60;;
62584;SDS011;48643;51.670;5.808;2022-09-06T14:59:58;4.30;;;2.65;;
62584;SDS011;48643;51.670;5.808;2022-09-06T15:02:25;8.13;;;2.75;;
62584;SDS011;48643;51.670;5.808;2022-09-06T15:04:54;7.15;;;2.67;;
62584;SDS011;48643;51.670;5.808;2022-09-06T15:07:21;14.73;;;2.50;;
62584;SDS011;48643;51.670;5.808;2022-09-06T15:09:48;6.60;;;2.60;;
62584;SDS011;48643;51.670;5.808;2022-09-06T15:12:16;9.47;;;2.40;;
62584;SDS011;48643;51.670;5.808;2022-09-06T15:14:43;8.07;;;2.60;;
62584;SDS011;48643;51.670;5.808;2022-09-06T15:17:13;9.27;;;3.05;;
62584;SDS011;48643;51.670;5.808;2022-09-06T15:19:40;5.53;;;2.90;;
62584;SDS011;48643;51.670;5.808;2022-09-06T15:22:07;14.52;;;3.20;;
62584;SDS011;48643;51.670;5.808;2022-09-06T15:24:36;10.63;;;3.20;;
62584;SDS011;48643;51.670;5.808;2022-09-06T15:27:02;8.13;;;3.20;;
62584;SDS011;48643;51.670;5.808;2022-09-06T15:29:30;6.45;;;3.10;;
62584;SDS011;48643;51.670;5.808;2022-09-06T15:31:57;8.05;;;3.10;;
62584;SDS011;48643;51.670;5.808;2022-09-06T15:34:28;8.55;;;3.30;;
62584;SDS011;48643;51.670;5.808;2022-09-06T15:36:54;8.05;;;3.22;;
62584;SDS011;48643;51.670;5.808;2022-09-06T15:39:22;7.93;;;3.13;;
62584;SDS011;48643;51.670;5.808;2022-09-06T15:41:49;11.00;;;3.38;;
62584;SDS011;48643;51.670;5.808;2022-09-06T15:44:18;8.60;;;3.28;;
62584;SDS011;48643;51.670;5.808;2022-09-06T15:46:49;8.77;;;3.60;;
62584;SDS011;48643;51.670;5.808;2022-09-06T15:49:23;7.97;;;3.30;;
62584;SDS011;48643;51.670;5.808;2022-09-06T15:51:54;7.50;;;3.60;;
62584;SDS011;48643;51.670;5.808;2022-09-06T15:54:28;11.15;;;3.55;;
62584;SDS011;48643;51.670;5.808;2022-09-06T15:57:14;9.65;;;3.60;;
62584;SDS011;48643;51.670;5.808;2022-09-06T15:59:42;11.20;;;3.30;;
62584;SDS011;48643;51.670;5.808;2022-09-06T16:02:09;10.15;;;3.63;;
62584;SDS011;48643;51.670;5.808;2022-09-06T16:04:37;10.52;;;4.00;;
62584;SDS011;48643;51.670;5.808;2022-09-06T16:07:04;11.60;;;3.45;;
62584;SDS011;48643;51.670;5.808;2022-09-06T16:09:32;8.67;;;3.70;;
62584;SDS011;48643;51.670;5.808;2022-09-06T16:11:59;13.65;;;3.53;;
62584;SDS011;48643;51.670;5.808;2022-09-06T16:14:26;6.15;;;3.38;;
62584;SDS011;48643;51.670;5.808;2022-09-06T16:16:55;9.40;;;3.83;;
62584;SDS011;48643;51.670;5.808;2022-09-06T16:19:22;9.88;;;3.70;;
62584;SDS011;48643;51.670;5.808;2022-09-06T16:21:51;8.55;;;3.80;;
62584;SDS011;48643;51.670;5.808;2022-09-06T16:24:18;12.40;;;3.70;;
62584;SDS011;48643;51.670;5.808;2022-09-06T16:26:45;13.30;;;4.20;;
62584;SDS011;48643;51.670;5.808;2022-09-06T16:29:13;10.07;;;3.40;;
62584;SDS011;48643;51.670;5.808;2022-09-06T16:31:41;14.27;;;4.03;;
62584;SDS011;48643;51.670;5.808;2022-09-06T16:34:08;7.57;;;3.85;;
62584;SDS011;48643;51.670;5.808;2022-09-06T16:36:36;8.40;;;3.70;;
62584;SDS011;48643;51.670;5.808;2022-09-06T16:39:03;9.80;;;4.18;;
62584;SDS011;48643;51.670;5.808;2022-09-06T16:41:32;12.48;;;3.85;;
62584;SDS011;48643;51.670;5.808;2022-09-06T16:44:07;14.90;;;4.05;;
62584;SDS011;48643;51.670;5.808;2022-09-06T16:46:34;7.47;;;3.70;;
62584;SDS011;48643;51.670;5.808;2022-09-06T16:49:01;8.75;;;3.33;;
62584;SDS011;48643;51.670;5.808;2022-09-06T16:51:29;5.75;;;3.70;;
62584;SDS011;48643;51.670;5.808;2022-09-06T16:53:56;6.28;;;3.67;;
62584;SDS011;48643;51.670;5.808;2022-09-06T16:56:28;9.70;;;4.07;;
62584;SDS011;48643;51.670;5.808;2022-09-06T16:58:59;15.23;;;4.43;;
62584;SDS011;48643;51.670;5.808;2022-09-06T17:01:29;11.13;;;4.70;;
62584;SDS011;48643;51.670;5.808;2022-09-06T17:03:56;10.27;;;4.53;;
62584;SDS011;48643;51.670;5.808;2022-09-06T17:06:24;7.97;;;3.72;;
62584;SDS011;48643;51.670;5.808;2022-09-06T17:08:51;13.90;;;4.38;;
62584;SDS011;48643;51.670;5.808;2022-09-06T17:11:18;13.02;;;4.13;;
62584;SDS011;48643;51.670;5.808;2022-09-06T17:13:47;11.45;;;4.10;;
62584;SDS011;48643;51.670;5.808;2022-09-06T17:19:01;12.07;;;4.25;;
62584;SDS011;48643;51.670;5.808;2022-09-06T17:21:29;10.80;;;3.90;;
62584;SDS011;48643;51.670;5.808;2022-09-06T17:23:56;12.63;;;4.00;;
62584;SDS011;48643;51.670;5.808;2022-09-06T17:26:30;14.32;;;3.50;;
62584;SDS011;48643;51.670;5.808;2022-09-06T17:28:57;8.05;;;3.88;;
62584;SDS011;48643;51.670;5.808;2022-09-06T17:31:25;7.75;;;3.85;;
62584;SDS011;48643;51.670;5.808;2022-09-06T17:33:52;11.30;;;3.80;;
62584;SDS011;48643;51.670;5.808;2022-09-06T17:36:22;13.60;;;3.45;;
62584;SDS011;48643;51.670;5.808;2022-09-06T17:38:51;12.85;;;3.80;;